createdAt,value
2019-01-31T00:00:52.362Z,92.97
2019-01-31T00:04:04.734Z,106.17
2019-01-31T00:07:03.465Z,92.80
2019-01-31T00:10:18.634Z,79.77
2019-01-31T00:13:15.983Z,83.73
2019-01-31T00:16:03.923Z,87.07
2019-01-31T00:18:53.962Z,88.57
2019-01-31T00:22:08.689Z,89.87
2019-01-31T00:24:45.254Z,83.13
2019-01-31T00:27:44.251Z,92.53
2019-01-31T00:31:00.214Z,88.90
2019-01-31T00:34:02.939Z,85.57
2019-01-31T00:37:28.335Z,100.43
2019-01-31T00:40:46.784Z,96.20
2019-01-31T00:43:56.386Z,80.20
2019-01-31T00:47:13.726Z,90.83
2019-01-31T00:50:18.327Z,80.87
2019-01-31T00:53:18.031Z,76.77
2019-01-31T00:56:20.156Z,87.57
2019-01-31T00:59:16.047Z,76.93
2019-01-31T01:02:37.626Z,82.07
2019-01-31T01:05:45.816Z,74.57
2019-01-31T01:08:53.282Z,76.23
2019-01-31T01:12:04.650Z,71.43
2019-01-31T01:15:13.750Z,90.50
2019-01-31T01:17:54.811Z,71.43
2019-01-31T01:21:02.614Z,73.53
2019-01-31T01:23:49.675Z,76.27
2019-01-31T01:26:40.731Z,61.17
2019-01-31T01:29:24.526Z,73.47
2019-01-31T01:32:27.783Z,69.13
2019-01-31T01:35:40.525Z,64.90
2019-01-31T01:38:49.799Z,69.57
2019-01-31T01:41:51.571Z,65.57
2019-01-31T01:45:02.158Z,68.80
2019-01-31T01:48:18.899Z,65.50
2019-01-31T01:51:21.068Z,56.13
2019-01-31T01:54:15.813Z,61.97
2019-01-31T01:57:14.078Z,63.00
2019-01-31T02:00:15.971Z,75.23
2019-01-31T02:03:35.135Z,73.40
2019-01-31T02:06:45.424Z,65.87
2019-01-31T02:09:38.549Z,72.37
2019-01-31T02:12:37.998Z,77.40
2019-01-31T02:16:02.476Z,87.33
2019-01-31T02:18:43.671Z,91.43
2019-01-31T02:22:05.120Z,92.50
2019-01-31T02:25:00.649Z,96.30
2019-01-31T02:28:29.514Z,100.63
2019-01-31T02:31:43.260Z,95.70
2019-01-31T02:34:48.126Z,93.83
2019-01-31T02:37:42.361Z,111.53
2019-01-31T02:40:19.469Z,123.43
2019-01-31T02:43:19.128Z,105.60
2019-01-31T02:46:24.455Z,112.00
2019-01-31T02:49:28.650Z,98.13
2019-01-31T02:52:18.833Z,99.93
2019-01-31T02:55:27.460Z,91.00
2019-01-31T02:58:34.690Z,100.13
2019-01-31T03:02:00.265Z,102.40
2019-01-31T03:04:57.357Z,92.43
2019-01-31T03:07:57.440Z,89.70
2019-01-31T03:10:46.232Z,80.13
2019-01-31T03:14:09.506Z,83.93
2019-01-31T03:16:44.690Z,81.57
2019-01-31T03:20:03.354Z,91.27
2019-01-31T03:23:11.882Z,81.03
2019-01-31T03:26:01.042Z,75.20
2019-01-31T03:29:08.556Z,70.33
2019-01-31T03:32:21.155Z,64.23
2019-01-31T03:35:37.318Z,82.07
2019-01-31T03:38:33.376Z,101.17
2019-01-31T03:41:52.675Z,79.07
2019-01-31T03:44:43.143Z,79.40
2019-01-31T03:47:23.245Z,74.43
2019-01-31T03:50:22.176Z,80.40
2019-01-31T03:53:41.920Z,98.43
2019-01-31T03:56:53.877Z,83.50
2019-01-31T03:59:27.798Z,94.73
2019-01-31T04:02:10.112Z,83.33
2019-01-31T04:04:54.797Z,94.57
2019-01-31T04:07:24.316Z,90.30
2019-01-31T04:09:54.105Z,92.77
2019-01-31T04:12:23.270Z,88.90
2019-01-31T04:14:52.814Z,85.70
2019-01-31T04:17:22.105Z,91.23
2019-01-31T04:19:51.950Z,93.93
2019-01-31T04:22:21.169Z,78.00
2019-01-31T04:24:50.914Z,88.50
2019-01-31T04:27:20.088Z,77.87
2019-01-31T04:29:49.283Z,88.13
2019-01-31T04:32:18.506Z,78.93
2019-01-31T04:34:47.730Z,75.23
2019-01-31T04:37:17.140Z,81.23
2019-01-31T04:39:47.000Z,89.07
2019-01-31T04:42:16.137Z,85.83
2019-01-31T04:44:45.707Z,84.70
2019-01-31T04:47:15.244Z,83.23
2019-01-31T04:49:44.678Z,86.10
2019-01-31T04:52:13.881Z,84.37
2019-01-31T04:54:43.072Z,86.03
2019-01-31T04:57:12.595Z,87.00
2019-01-31T04:59:42.978Z,89.17
2019-01-31T05:02:12.223Z,94.47
2019-01-31T05:04:41.428Z,104.03
2019-01-31T05:07:10.576Z,98.92
2019-01-31T05:09:39.740Z,91.13
2019-01-31T05:12:08.950Z,104.50
2019-01-31T05:14:38.176Z,98.87
2019-01-31T05:17:07.440Z,88.17
2019-01-31T05:19:37.442Z,86.13
2019-01-31T05:22:07.600Z,94.93
2019-01-31T05:24:37.144Z,89.57
2019-01-31T05:27:06.355Z,88.00
2019-01-31T05:29:36.593Z,93.00
2019-01-31T05:32:06.100Z,87.40
2019-01-31T05:34:35.576Z,81.90
2019-01-31T05:37:05.084Z,90.72
2019-01-31T05:39:34.268Z,84.90
2019-01-31T05:42:03.454Z,82.20
2019-01-31T05:44:33.302Z,86.50
2019-01-31T05:47:02.778Z,81.23
2019-01-31T05:49:31.966Z,90.67
2019-01-31T05:52:01.162Z,81.63
2019-01-31T05:54:30.289Z,84.90
2019-01-31T05:57:00.210Z,81.85
2019-01-31T05:59:29.714Z,82.90
2019-01-31T06:01:59.209Z,71.50
2019-01-31T06:04:28.351Z,78.97
2019-01-31T06:06:57.663Z,85.57
2019-01-31T06:09:26.801Z,73.50
2019-01-31T06:11:55.995Z,82.73
2019-01-31T06:16:26.895Z,71.63
2019-01-31T06:18:56.067Z,71.27
2019-01-31T06:21:25.220Z,75.53
2019-01-31T06:23:54.810Z,82.60
2019-01-31T06:26:24.409Z,85.83
2019-01-31T06:28:53.811Z,83.60
2019-01-31T06:31:23.307Z,93.00
2019-01-31T06:33:52.462Z,92.30
2019-01-31T06:36:21.671Z,83.93
2019-01-31T06:38:51.145Z,83.90
2019-01-31T06:41:20.389Z,82.03
2019-01-31T06:43:49.923Z,92.37
2019-01-31T06:46:19.417Z,92.27
2019-01-31T06:48:48.621Z,86.63
2019-01-31T06:51:17.792Z,99.80
2019-01-31T06:53:47.009Z,92.83
2019-01-31T06:56:16.820Z,105.97
2019-01-31T06:58:46.010Z,98.20
2019-01-31T07:01:15.237Z,112.33
2019-01-31T07:03:44.490Z,116.37
2019-01-31T07:06:14.035Z,105.03
2019-01-31T07:08:43.566Z,121.33
2019-01-31T07:11:13.776Z,138.93
2019-01-31T07:13:43.447Z,128.00
2019-01-31T07:16:12.639Z,131.27
2019-01-31T07:18:42.199Z,113.87
2019-01-31T07:21:11.394Z,112.17
2019-01-31T07:23:40.745Z,120.33
2019-01-31T07:26:10.284Z,108.77
2019-01-31T07:28:39.898Z,133.30
2019-01-31T07:31:09.733Z,135.10
2019-01-31T07:33:39.133Z,130.60
2019-01-31T07:36:08.354Z,112.43
2019-01-31T07:38:37.623Z,135.60
2019-01-31T07:41:06.824Z,135.73
2019-01-31T07:43:36.014Z,118.77
2019-01-31T07:46:05.821Z,126.67
2019-01-31T07:48:34.992Z,129.37
2019-01-31T07:51:04.552Z,126.50
2019-01-31T07:53:34.869Z,144.03
2019-01-31T07:56:04.103Z,149.43
2019-01-31T07:58:33.865Z,159.30
2019-01-31T08:01:03.214Z,149.00
2019-01-31T08:03:32.767Z,136.20
2019-01-31T08:06:01.981Z,122.70
2019-01-31T08:08:31.316Z,141.83
2019-01-31T08:11:02.526Z,156.57
2019-01-31T08:13:32.069Z,171.20
2019-01-31T08:16:02.155Z,151.70
2019-01-31T08:18:32.094Z,142.50
2019-01-31T08:21:01.576Z,142.70
2019-01-31T08:23:30.783Z,143.63
2019-01-31T08:26:00.051Z,139.97
2019-01-31T08:28:29.610Z,149.60
2019-01-31T08:30:58.978Z,134.07
2019-01-31T08:33:28.589Z,154.33
2019-01-31T08:35:57.915Z,131.00
2019-01-31T08:38:27.713Z,139.83
2019-01-31T08:40:56.996Z,129.23
2019-01-31T08:43:26.617Z,139.50
2019-01-31T08:45:55.806Z,129.23
2019-01-31T08:48:25.524Z,127.03
2019-01-31T08:50:55.003Z,117.53
2019-01-31T08:53:24.536Z,93.50
2019-01-31T08:55:53.700Z,105.70
2019-01-31T08:58:22.980Z,174.50
2019-01-31T09:00:53.166Z,122.63
2019-01-31T09:03:22.534Z,123.73
2019-01-31T09:05:51.701Z,130.17
2019-01-31T09:08:20.926Z,110.77
2019-01-31T09:10:50.199Z,113.47
2019-01-31T09:13:19.451Z,185.23
2019-01-31T09:15:48.777Z,193.27
2019-01-31T09:18:19.450Z,206.43
2019-01-31T09:20:55.631Z,132.33
2019-01-31T09:23:51.116Z,99.43
2019-01-31T09:27:07.687Z,114.53
2019-01-31T09:29:47.740Z,111.87
2019-01-31T09:32:45.109Z,125.77
2019-01-31T09:35:50.824Z,196.50
2019-01-31T09:39:28.801Z,156.00
2019-01-31T09:42:26.046Z,124.80
2019-01-31T09:45:08.840Z,147.87
2019-01-31T09:48:08.892Z,136.27
2019-01-31T09:51:28.309Z,115.90
2019-01-31T09:54:33.009Z,119.40
2019-01-31T09:57:46.019Z,112.47
2019-01-31T10:00:53.083Z,100.10
2019-01-31T10:04:18.590Z,113.37
2019-01-31T10:07:35.454Z,111.30
2019-01-31T10:10:35.636Z,96.20
2019-01-31T10:13:51.925Z,94.90
2019-01-31T10:16:41.122Z,89.17
2019-01-31T10:19:54.930Z,94.17
2019-01-31T10:22:49.884Z,79.57
2019-01-31T10:26:09.247Z,96.70
2019-01-31T10:29:02.145Z,104.47
2019-01-31T10:32:27.388Z,95.87
2019-01-31T10:35:14.324Z,103.47
2019-01-31T10:38:07.078Z,106.60
2019-01-31T10:41:02.230Z,98.20
2019-01-31T10:43:42.746Z,99.10
2019-01-31T10:46:25.604Z,296.80
2019-01-31T10:49:37.251Z,91.63
2019-01-31T10:52:41.491Z,100.63
2019-01-31T10:55:50.042Z,115.67
2019-01-31T10:58:39.283Z,85.57
2019-01-31T11:02:07.740Z,82.80
2019-01-31T11:05:21.149Z,90.30
2019-01-31T11:08:28.547Z,85.90
2019-01-31T11:11:34.553Z,98.83
2019-01-31T11:14:57.081Z,82.50
2019-01-31T11:18:00.623Z,80.07
2019-01-31T11:20:50.012Z,99.23
2019-01-31T11:23:51.769Z,86.53
2019-01-31T11:27:05.598Z,99.30
2019-01-31T11:30:11.522Z,88.17
2019-01-31T11:33:32.749Z,96.57
2019-01-31T11:36:46.491Z,97.43
2019-01-31T11:40:02.529Z,91.83
2019-01-31T11:43:11.472Z,91.73
2019-01-31T11:46:11.403Z,86.90
2019-01-31T11:49:02.723Z,83.83
2019-01-31T11:52:31.451Z,90.30
2019-01-31T11:55:24.847Z,75.20
2019-01-31T11:58:31.041Z,77.90
2019-01-31T12:01:00.870Z,79.27
2019-01-31T12:03:30.441Z,76.50
2019-01-31T12:05:59.958Z,80.03
2019-01-31T12:08:29.120Z,76.40
2019-01-31T12:10:58.670Z,91.13
2019-01-31T12:13:27.869Z,78.97
2019-01-31T12:15:57.106Z,73.70
2019-01-31T12:18:26.549Z,76.70
2019-01-31T12:20:55.752Z,62.98
2019-01-31T12:23:25.943Z,68.37
2019-01-31T12:25:56.435Z,65.90
2019-01-31T12:28:26.104Z,65.10
2019-01-31T12:30:55.839Z,66.30
2019-01-31T12:33:26.998Z,69.63
2019-01-31T12:35:57.488Z,59.90
2019-01-31T12:38:36.487Z,62.90
2019-01-31T12:40:59.861Z,61.37
2019-01-31T12:43:35.250Z,74.00
2019-01-31T12:46:01.151Z,67.97
2019-01-31T12:48:30.668Z,62.03
2019-01-31T12:51:00.141Z,63.70
2019-01-31T12:53:29.667Z,57.90
2019-01-31T12:55:59.489Z,61.93
2019-01-31T12:58:33.683Z,52.03
2019-01-31T13:01:00.757Z,61.27
2019-01-31T13:03:30.258Z,44.93
2019-01-31T13:05:59.483Z,53.30
2019-01-31T13:08:29.067Z,51.93
2019-01-31T13:10:58.192Z,51.33
2019-01-31T13:13:27.409Z,46.03
2019-01-31T13:15:56.867Z,47.50
2019-01-31T13:18:26.479Z,42.60
2019-01-31T13:20:55.858Z,39.63
2019-01-31T13:23:25.017Z,48.33
2019-01-31T13:25:54.213Z,35.53
2019-01-31T13:28:23.584Z,41.57
2019-01-31T13:30:53.509Z,39.10
2019-01-31T13:33:22.690Z,40.20
2019-01-31T13:35:51.851Z,43.33
2019-01-31T13:38:21.006Z,48.73
2019-01-31T13:40:50.372Z,39.77
2019-01-31T13:43:20.019Z,40.43
2019-01-31T13:45:49.204Z,45.17
2019-01-31T13:48:18.517Z,41.27
2019-01-31T13:50:47.659Z,58.10
2019-01-31T13:53:16.812Z,55.40
2019-01-31T13:55:47.190Z,55.37
2019-01-31T13:58:16.367Z,44.90
2019-01-31T14:00:45.892Z,54.93
2019-01-31T14:03:15.061Z,42.97
2019-01-31T14:05:44.252Z,44.37
2019-01-31T14:08:13.461Z,45.50
2019-01-31T14:10:42.675Z,55.80
2019-01-31T14:13:11.810Z,29.83
2019-01-31T14:15:41.028Z,37.23
2019-01-31T14:18:10.239Z,39.33
2019-01-31T14:20:39.466Z,37.73
2019-01-31T14:23:08.665Z,53.43
2019-01-31T14:25:37.865Z,43.20
2019-01-31T14:28:07.026Z,47.10
2019-01-31T14:30:38.227Z,47.57
2019-01-31T14:33:20.074Z,42.40
2019-01-31T14:35:49.257Z,64.57
2019-01-31T14:38:18.803Z,52.93
2019-01-31T14:40:48.240Z,48.90
2019-01-31T14:43:17.756Z,38.07
2019-01-31T14:45:47.467Z,38.50
2019-01-31T14:48:16.678Z,42.10
2019-01-31T14:50:45.885Z,32.13
2019-01-31T14:53:15.170Z,38.10
2019-01-31T14:55:44.365Z,35.03
2019-01-31T14:58:13.766Z,28.93
2019-01-31T15:00:44.355Z,33.10
2019-01-31T15:03:13.571Z,33.10
2019-01-31T15:05:44.272Z,43.93
2019-01-31T15:08:14.029Z,35.30
2019-01-31T15:10:45.845Z,39.60
2019-01-31T15:13:14.087Z,57.07
2019-01-31T15:15:43.300Z,38.83
2019-01-31T15:18:12.518Z,44.13
2019-01-31T15:20:44.277Z,44.20
2019-01-31T15:23:13.755Z,42.23
2019-01-31T15:25:43.306Z,77.37
2019-01-31T15:28:13.156Z,44.20
2019-01-31T15:30:42.448Z,52.83
2019-01-31T15:33:13.689Z,46.80
2019-01-31T15:35:44.264Z,38.00
2019-01-31T15:38:14.015Z,46.63
2019-01-31T15:40:46.460Z,50.87
2019-01-31T15:43:15.642Z,46.50
2019-01-31T15:45:46.748Z,44.37
2019-01-31T15:48:16.655Z,54.43
2019-01-31T15:50:45.846Z,52.27
2019-01-31T15:53:15.328Z,62.63
2019-01-31T15:55:45.103Z,50.78
2019-01-31T15:58:15.069Z,85.90
2019-01-31T16:00:49.836Z,65.57
2019-01-31T16:03:21.093Z,53.03
2019-01-31T16:05:51.432Z,166.00
2019-01-31T16:08:20.869Z,116.17
2019-01-31T16:10:50.200Z,60.60
2019-01-31T16:13:19.380Z,45.73
2019-01-31T16:15:48.691Z,54.35
2019-01-31T16:18:17.994Z,50.93
2019-01-31T16:20:49.701Z,37.77
2019-01-31T16:23:19.375Z,50.90
2019-01-31T16:25:48.760Z,51.48
2019-01-31T16:28:18.352Z,67.10
2019-01-31T16:30:47.559Z,56.13
2019-01-31T16:33:16.762Z,64.60
2019-01-31T16:35:47.343Z,45.50
2019-01-31T16:38:16.918Z,46.40
2019-01-31T16:40:46.175Z,52.37
2019-01-31T16:43:15.341Z,40.00
2019-01-31T16:45:46.255Z,64.17
2019-01-31T16:48:15.749Z,180.23
2019-01-31T16:50:45.558Z,83.93
2019-01-31T16:53:15.365Z,84.33
2019-01-31T16:55:44.898Z,54.60
2019-01-31T16:58:14.160Z,58.83
2019-01-31T17:00:43.514Z,50.23
2019-01-31T17:03:13.291Z,65.03
2019-01-31T17:05:42.607Z,50.63
2019-01-31T17:08:11.855Z,48.60
2019-01-31T17:10:41.394Z,71.93
2019-01-31T17:13:10.680Z,55.90
2019-01-31T17:15:40.201Z,51.63
2019-01-31T17:18:09.465Z,58.77
2019-01-31T17:20:43.976Z,45.43
2019-01-31T17:23:13.636Z,43.93
2019-01-31T17:25:42.939Z,45.03
2019-01-31T17:28:12.800Z,38.23
2019-01-31T17:30:42.016Z,42.53
2019-01-31T17:33:11.577Z,57.97
2019-01-31T17:35:40.787Z,45.07
2019-01-31T17:38:10.152Z,56.93
2019-01-31T17:40:41.018Z,43.40
2019-01-31T17:43:13.359Z,41.50
2019-01-31T17:45:43.189Z,45.33
2019-01-31T17:48:16.295Z,44.73
2019-01-31T17:50:46.394Z,50.60
2019-01-31T17:53:15.685Z,50.60
2019-01-31T17:55:44.951Z,53.27
2019-01-31T17:58:14.597Z,48.03
2019-01-31T18:01:01.801Z,50.90
2019-01-31T18:03:31.341Z,46.73
2019-01-31T18:06:01.216Z,49.47
2019-01-31T18:08:30.506Z,57.60
2019-01-31T18:11:00.078Z,47.60
2019-01-31T18:13:30.064Z,48.93
2019-01-31T18:15:59.609Z,53.80
2019-01-31T18:18:30.003Z,44.30
2019-01-31T18:20:59.529Z,44.47
2019-01-31T18:23:29.089Z,38.73
2019-01-31T18:25:58.243Z,44.93
2019-01-31T18:28:27.641Z,42.83
2019-01-31T18:30:57.222Z,60.90
2019-01-31T18:33:27.643Z,46.37
2019-01-31T18:35:56.972Z,51.53
2019-01-31T18:38:26.407Z,53.83
2019-01-31T18:40:55.643Z,55.97
2019-01-31T18:43:24.870Z,55.63
2019-01-31T18:45:54.151Z,51.83
2019-01-31T18:48:23.959Z,49.60
2019-01-31T18:50:53.266Z,63.20
2019-01-31T18:53:22.635Z,73.60
2019-01-31T18:55:52.102Z,63.43
2019-01-31T18:58:23.092Z,58.83
2019-01-31T19:00:52.732Z,69.13
2019-01-31T19:03:21.931Z,88.70
2019-01-31T19:05:51.110Z,75.17
2019-01-31T19:08:20.368Z,103.73
2019-01-31T19:10:50.287Z,84.93
2019-01-31T19:13:19.510Z,85.13
2019-01-31T19:15:48.868Z,87.42
2019-01-31T19:18:18.887Z,94.37
2019-01-31T19:20:49.768Z,124.57
2019-01-31T19:23:20.566Z,105.03
2019-01-31T19:25:49.826Z,103.17
2019-01-31T19:28:19.032Z,100.70
2019-01-31T19:30:48.478Z,114.57
2019-01-31T19:33:17.723Z,122.00
2019-01-31T19:35:47.271Z,114.17
2019-01-31T19:38:16.516Z,103.00
2019-01-31T19:40:47.032Z,109.07
2019-01-31T19:43:16.761Z,105.83
2019-01-31T19:45:50.664Z,85.73
2019-01-31T19:48:19.830Z,93.13
2019-01-31T19:50:49.633Z,89.40
2019-01-31T19:53:19.415Z,85.00
2019-01-31T19:55:49.343Z,92.87
2019-01-31T19:58:20.122Z,88.77
2019-01-31T20:00:49.394Z,81.53
2019-01-31T20:03:18.622Z,65.60
2019-01-31T20:05:48.636Z,75.03
2019-01-31T20:08:18.252Z,70.77
2019-01-31T20:10:48.181Z,69.60
2019-01-31T20:13:17.989Z,72.70
2019-01-31T20:15:47.629Z,67.87
2019-01-31T20:18:17.091Z,68.67
2019-01-31T20:20:47.039Z,61.93
2019-01-31T20:23:16.651Z,70.53
2019-01-31T20:25:46.534Z,61.07
2019-01-31T20:28:15.724Z,64.80
2019-01-31T20:30:45.433Z,64.33
2019-01-31T20:33:15.175Z,74.90
2019-01-31T20:35:44.555Z,72.23
2019-01-31T20:38:14.082Z,73.97
2019-01-31T20:40:44.627Z,99.77
2019-01-31T20:43:13.993Z,77.47
2019-01-31T20:45:45.164Z,81.13
2019-01-31T20:48:14.512Z,97.03
2019-01-31T20:50:43.664Z,59.33
2019-01-31T20:53:13.668Z,94.97
2019-01-31T20:58:18.536Z,64.10
2019-01-31T21:00:48.765Z,61.90
2019-01-31T21:03:17.968Z,60.47
2019-01-31T21:05:47.864Z,63.20
2019-01-31T21:08:18.577Z,60.70
2019-01-31T21:10:48.025Z,43.93
2019-01-31T21:13:18.002Z,66.97
2019-01-31T21:15:47.461Z,61.50
2019-01-31T21:18:17.155Z,58.23
2019-01-31T21:20:49.024Z,75.57
2019-01-31T21:23:18.525Z,50.87
2019-01-31T21:25:47.683Z,57.57
2019-01-31T21:28:17.273Z,58.47
2019-01-31T21:30:46.493Z,75.73
2019-01-31T21:33:16.155Z,48.87
2019-01-31T21:35:45.643Z,66.77
2019-01-31T21:38:15.162Z,52.73
2019-01-31T21:40:44.362Z,50.67
2019-01-31T21:43:13.871Z,46.73
2019-01-31T21:45:43.536Z,83.90
2019-01-31T21:48:12.775Z,46.00
2019-01-31T21:50:41.937Z,40.80
2019-01-31T21:53:11.808Z,34.17
2019-01-31T21:55:42.189Z,37.77
2019-01-31T21:58:11.325Z,35.47
2019-01-31T22:00:40.808Z,47.35
2019-01-31T22:03:10.270Z,41.10
2019-01-31T22:05:40.131Z,40.63
2019-01-31T22:08:10.050Z,22.23
2019-01-31T22:10:39.204Z,31.67
2019-01-31T22:13:08.851Z,30.10
2019-01-31T22:15:38.499Z,31.63
2019-01-31T22:18:08.167Z,36.63
2019-01-31T22:20:37.845Z,36.10
2019-01-31T22:23:07.053Z,36.07
2019-01-31T22:25:36.613Z,31.23
2019-01-31T22:28:06.182Z,31.53
2019-01-31T22:30:37.559Z,30.90
2019-01-31T22:33:08.459Z,34.70
2019-01-31T22:35:38.024Z,35.63
2019-01-31T22:38:07.826Z,31.70
2019-01-31T22:40:37.322Z,38.93
2019-01-31T22:43:07.280Z,31.60
2019-01-31T22:45:36.481Z,31.53
2019-01-31T22:48:07.513Z,30.03
2019-01-31T22:50:36.803Z,32.40
2019-01-31T22:53:06.741Z,31.73
2019-01-31T22:55:35.894Z,28.33
2019-01-31T22:58:05.797Z,27.33
2019-01-31T23:01:23.035Z,27.23
2019-01-31T23:03:52.622Z,34.23
2019-01-31T23:06:21.916Z,28.80
2019-01-31T23:08:51.377Z,22.03
2019-01-31T23:11:20.867Z,24.43
2019-01-31T23:13:50.249Z,26.53
2019-01-31T23:16:19.732Z,29.13
2019-01-31T23:18:48.937Z,30.63
2019-01-31T23:21:18.100Z,24.13
2019-01-31T23:23:47.244Z,19.53
2019-01-31T23:26:16.538Z,26.30
2019-01-31T23:28:46.073Z,23.07
2019-01-31T23:31:15.227Z,26.50
2019-01-31T23:33:44.552Z,23.47
2019-01-31T23:36:14.191Z,30.27
2019-01-31T23:38:43.354Z,23.17
2019-01-31T23:41:12.541Z,26.40
2019-01-31T23:43:41.688Z,21.63
2019-01-31T23:46:10.865Z,23.70
2019-01-31T23:48:40.434Z,26.53
2019-01-31T23:51:10.597Z,29.27
2019-01-31T23:53:39.782Z,29.10
2019-01-31T23:56:08.979Z,34.73
2019-01-31T23:58:40.071Z,18.13
